createdAt,value
2022-10-29T00:01:17.063Z,18.02
2022-10-29T00:03:45.048Z,18.00
2022-10-29T00:06:16.491Z,18.02
2022-10-29T00:08:44.212Z,18.02
2022-10-29T00:11:13.872Z,18.01
2022-10-29T00:13:43.831Z,18.01
2022-10-29T00:16:14.359Z,18.01
2022-10-29T00:18:42.371Z,18.01
2022-10-29T00:21:12.784Z,18.02
2022-10-29T00:23:41.123Z,18.03
2022-10-29T00:26:11.888Z,18.00
2022-10-29T00:28:39.682Z,17.99
2022-10-29T00:31:14.997Z,17.98
2022-10-29T00:33:43.041Z,17.96
2022-10-29T00:36:13.283Z,17.84
2022-10-29T00:38:41.104Z,17.93
2022-10-29T00:41:12.259Z,17.93
2022-10-29T00:43:42.833Z,17.83
2022-10-29T00:46:15.151Z,17.86
2022-10-29T00:48:46.026Z,17.82
2022-10-29T00:51:16.582Z,17.76
2022-10-29T00:53:50.904Z,17.70
2022-10-29T00:56:18.840Z,17.65
2022-10-29T00:58:47.141Z,17.63
2022-10-29T01:01:16.913Z,17.64
2022-10-29T01:03:44.771Z,17.51
2022-10-29T01:06:12.610Z,17.66
2022-10-29T01:08:42.720Z,17.65
2022-10-29T01:11:22.990Z,17.70
2022-10-29T01:14:07.732Z,17.70
2022-10-29T01:16:43.299Z,17.55
2022-10-29T01:19:20.273Z,17.65
2022-10-29T01:21:54.219Z,17.66
2022-10-29T01:25:00.331Z,17.65
2022-10-29T01:27:49.245Z,17.64
2022-10-29T01:30:22.384Z,17.62
2022-10-29T01:32:58.598Z,17.58
2022-10-29T01:35:34.357Z,17.53
2022-10-29T01:38:16.097Z,17.51
2022-10-29T01:40:51.066Z,17.37
2022-10-29T01:43:26.907Z,17.48
2022-10-29T01:45:59.529Z,17.47
2022-10-29T01:48:33.672Z,17.45
2022-10-29T01:51:07.057Z,17.41
2022-10-29T01:53:38.618Z,17.38
2022-10-29T01:56:06.823Z,17.35
2022-10-29T01:58:36.838Z,17.33
2022-10-29T02:01:17.975Z,17.35
2022-10-29T02:03:58.481Z,17.37
2022-10-29T02:06:44.278Z,17.36
2022-10-29T02:09:20.111Z,17.37
2022-10-29T02:11:53.909Z,17.33
2022-10-29T02:14:27.254Z,17.32
2022-10-29T02:16:57.236Z,17.28
2022-10-29T02:19:30.732Z,17.26
2022-10-29T02:21:58.577Z,17.25
2022-10-29T02:24:26.665Z,17.14
2022-10-29T02:26:56.904Z,17.32
2022-10-29T02:29:27.574Z,17.37
2022-10-29T02:31:58.010Z,17.36
2022-10-29T02:34:27.160Z,17.33
2022-10-29T02:36:54.820Z,17.24
2022-10-29T02:39:22.520Z,17.21
2022-10-29T02:41:57.904Z,17.15
2022-10-29T02:44:25.738Z,17.08
2022-10-29T02:46:56.620Z,17.02
2022-10-29T02:49:24.456Z,16.94
2022-10-29T02:51:53.499Z,16.86
2022-10-29T02:54:21.182Z,16.77
2022-10-29T02:56:49.012Z,16.68
2022-10-29T02:59:16.810Z,16.64
2022-10-29T03:01:44.879Z,16.56
2022-10-29T03:04:13.045Z,16.51
2022-10-29T03:06:40.823Z,16.52
2022-10-29T03:09:10.087Z,16.50
2022-10-29T03:11:37.796Z,16.39
2022-10-29T03:14:05.641Z,16.44
2022-10-29T03:16:33.505Z,16.39
2022-10-29T03:19:01.573Z,16.33
2022-10-29T03:21:29.376Z,16.27
2022-10-29T03:23:57.237Z,16.19
2022-10-29T03:26:28.469Z,16.16
2022-10-29T03:28:56.776Z,16.10
2022-10-29T03:31:24.558Z,16.04
2022-10-29T03:33:55.120Z,16.01
2022-10-29T03:36:23.170Z,15.96
2022-10-29T03:38:50.904Z,15.97
2022-10-29T03:41:21.222Z,15.94
2022-10-29T03:43:53.455Z,15.92
2022-10-29T03:46:21.238Z,15.88
2022-10-29T03:48:50.526Z,15.76
2022-10-29T03:51:24.535Z,15.85
2022-10-29T03:53:53.089Z,15.86
2022-10-29T03:56:20.845Z,15.84
2022-10-29T03:58:48.627Z,15.85
2022-10-29T04:01:20.991Z,15.89
2022-10-29T04:03:49.028Z,15.89
2022-10-29T04:06:18.401Z,15.86
2022-10-29T04:08:46.407Z,15.86
2022-10-29T04:11:15.306Z,15.83
2022-10-29T04:13:43.008Z,15.80
2022-10-29T04:16:11.006Z,15.78
2022-10-29T04:18:40.071Z,15.73
2022-10-29T04:29:34.830Z,15.62
2022-10-29T04:32:02.614Z,15.61
2022-10-29T04:34:33.910Z,15.59
2022-10-29T04:37:03.781Z,15.23
2022-10-29T04:39:44.044Z,15.52
2022-10-29T04:42:11.879Z,15.50
2022-10-29T04:44:39.927Z,15.49
2022-10-29T04:47:07.675Z,15.48
2022-10-29T04:49:36.779Z,15.45
2022-10-29T04:52:06.996Z,15.44
2022-10-29T04:54:34.718Z,15.45
2022-10-29T04:57:16.362Z,15.40
2022-10-29T04:59:52.961Z,15.45
2022-10-29T05:02:25.641Z,15.44
2022-10-29T05:04:54.971Z,15.42
2022-10-29T05:07:23.248Z,15.40
2022-10-29T05:10:05.091Z,15.37
2022-10-29T05:12:35.995Z,15.35
2022-10-29T05:15:04.491Z,15.34
2022-10-29T05:17:38.423Z,15.31
2022-10-29T05:20:08.902Z,15.30
2022-10-29T05:22:36.844Z,15.28
2022-10-29T05:25:06.858Z,15.34
2022-10-29T05:27:47.004Z,15.40
2022-10-29T05:30:14.749Z,15.46
2022-10-29T05:32:44.615Z,15.54
2022-10-29T05:35:17.040Z,15.62
2022-10-29T05:37:44.824Z,15.68
2022-10-29T05:40:13.303Z,15.71
2022-10-29T05:42:47.316Z,15.70
2022-10-29T05:45:21.250Z,15.67
2022-10-29T05:47:57.506Z,15.64
2022-10-29T05:50:30.742Z,15.50
2022-10-29T05:52:59.550Z,15.57
2022-10-29T05:55:28.651Z,15.52
2022-10-29T05:57:59.586Z,15.56
2022-10-29T06:00:31.899Z,15.65
2022-10-29T06:03:00.408Z,15.67
2022-10-29T06:05:34.387Z,15.72
2022-10-29T06:08:02.906Z,15.79
2022-10-29T06:10:31.006Z,15.82
2022-10-29T06:13:12.871Z,15.85
2022-10-29T06:15:58.448Z,15.86
2022-10-29T06:18:26.789Z,15.92
2022-10-29T06:20:58.978Z,15.97
2022-10-29T06:23:34.698Z,16.02
2022-10-29T06:26:03.559Z,16.04
2022-10-29T06:28:34.891Z,16.08
2022-10-29T06:31:06.560Z,16.13
2022-10-29T06:33:34.365Z,16.19
2022-10-29T06:36:13.437Z,16.29
2022-10-29T06:38:42.020Z,16.18
2022-10-29T06:41:10.605Z,16.29
2022-10-29T06:43:44.493Z,16.35
2022-10-29T06:46:12.151Z,16.39
2022-10-29T06:48:42.932Z,16.39
2022-10-29T06:51:14.703Z,16.32
2022-10-29T06:53:43.951Z,16.21
2022-10-29T06:56:11.757Z,16.16
2022-10-29T06:58:41.747Z,16.12
2022-10-29T07:01:09.827Z,16.11
2022-10-29T07:03:40.016Z,16.11
2022-10-29T07:06:08.458Z,16.14
2022-10-29T07:08:37.682Z,16.17
2022-10-29T07:11:08.602Z,16.18
2022-10-29T07:13:39.846Z,16.19
2022-10-29T07:16:08.828Z,16.21
2022-10-29T07:18:42.882Z,16.22
2022-10-29T07:21:10.734Z,16.18
2022-10-29T07:23:39.982Z,16.18
2022-10-29T07:26:09.702Z,16.14
2022-10-29T07:28:37.907Z,16.13
2022-10-29T07:31:12.426Z,16.14
2022-10-29T07:33:40.317Z,16.08
2022-10-29T07:36:10.617Z,16.10
2022-10-29T07:38:39.902Z,16.11
2022-10-29T07:41:08.191Z,16.14
2022-10-29T07:43:36.019Z,16.19
2022-10-29T07:46:03.913Z,16.26
2022-10-29T07:48:31.956Z,16.34
2022-10-29T07:51:02.743Z,16.44
2022-10-29T07:53:31.281Z,16.47
2022-10-29T07:56:00.953Z,16.46
2022-10-29T07:58:29.234Z,16.47
2022-10-29T08:01:00.649Z,16.51
2022-10-29T08:03:28.695Z,16.56
2022-10-29T08:06:02.795Z,16.61
2022-10-29T08:08:30.906Z,16.64
2022-10-29T08:11:02.973Z,16.69
2022-10-29T08:13:34.340Z,16.67
2022-10-29T08:16:02.425Z,16.81
2022-10-29T08:18:30.172Z,16.87
2022-10-29T08:21:07.623Z,16.89
2022-10-29T08:23:36.267Z,17.02
2022-10-29T08:26:08.573Z,17.11
2022-10-29T08:28:36.573Z,17.19
2022-10-29T08:31:06.575Z,17.29
2022-10-29T08:33:34.326Z,17.38
2022-10-29T08:36:11.616Z,17.47
2022-10-29T08:38:39.393Z,17.55
2022-10-29T08:44:15.316Z,17.83
2022-10-29T08:46:56.188Z,17.94
2022-10-29T08:49:33.080Z,18.01
2022-10-29T08:52:14.153Z,17.99
2022-10-29T08:54:45.244Z,18.08
2022-10-29T08:57:21.011Z,18.16
2022-10-29T09:00:01.096Z,18.29
2022-10-29T09:02:30.158Z,18.37
2022-10-29T09:04:58.365Z,18.43
2022-10-29T09:07:51.390Z,18.44
2022-10-29T09:10:36.291Z,18.46
2022-10-29T09:13:33.295Z,18.53
2022-10-29T09:16:11.676Z,18.47
2022-10-29T09:18:51.709Z,18.41
2022-10-29T09:21:30.183Z,18.42
2022-10-29T09:24:08.760Z,18.42
2022-10-29T09:26:50.390Z,18.49
2022-10-29T09:29:53.374Z,18.53
2022-10-29T09:32:27.196Z,18.49
2022-10-29T09:35:14.655Z,18.52
2022-10-29T09:37:48.710Z,18.61
2022-10-29T09:40:32.067Z,18.70
2022-10-29T09:43:01.251Z,18.78
2022-10-29T09:45:46.012Z,18.88
2022-10-29T09:48:23.314Z,19.02
2022-10-29T09:51:02.013Z,19.05
2022-10-29T09:53:29.920Z,19.07
2022-10-29T09:55:57.949Z,18.99
2022-10-29T09:58:29.172Z,19.17
2022-10-29T10:00:59.523Z,19.24
2022-10-29T10:03:31.064Z,19.32
2022-10-29T10:06:10.356Z,19.48
2022-10-29T10:09:02.996Z,19.58
2022-10-29T10:11:39.774Z,19.63
2022-10-29T10:14:19.272Z,19.65
2022-10-29T10:16:59.072Z,19.56
2022-10-29T10:19:29.345Z,19.62
2022-10-29T10:21:59.603Z,19.52
2022-10-29T10:24:32.787Z,19.42
2022-10-29T10:27:01.866Z,19.38
2022-10-29T10:29:29.763Z,19.43
2022-10-29T10:32:17.515Z,19.44
2022-10-29T10:34:45.650Z,19.43
2022-10-29T10:37:19.520Z,19.38
2022-10-29T10:40:01.529Z,19.36
2022-10-29T10:42:32.457Z,19.42
2022-10-29T10:45:06.537Z,19.51
2022-10-29T10:47:37.271Z,19.58
2022-10-29T10:50:13.548Z,19.66
2022-10-29T10:52:55.755Z,19.67
2022-10-29T10:55:28.383Z,19.36
2022-10-29T10:58:06.828Z,19.44
2022-10-29T11:00:45.088Z,19.34
2022-10-29T11:03:28.723Z,19.33
2022-10-29T11:06:06.654Z,19.40
2022-10-29T11:08:40.875Z,19.50
2022-10-29T11:11:14.591Z,19.55
2022-10-29T11:13:43.405Z,19.52
2022-10-29T11:16:17.911Z,19.53
2022-10-29T11:18:55.142Z,19.53
2022-10-29T11:21:29.127Z,19.42
2022-10-29T11:24:00.850Z,19.33
2022-10-29T11:26:33.509Z,19.32
2022-10-29T11:29:17.252Z,19.40
2022-10-29T11:32:04.165Z,19.45
2022-10-29T11:34:46.765Z,19.50
2022-10-29T11:37:24.124Z,19.43
2022-10-29T11:39:57.095Z,19.62
2022-10-29T11:42:26.140Z,19.68
2022-10-29T11:44:54.649Z,19.68
2022-10-29T11:48:07.465Z,19.76
2022-10-29T11:50:43.749Z,19.79
2022-10-29T11:53:23.863Z,19.82
2022-10-29T11:56:04.604Z,19.89
2022-10-29T11:58:40.777Z,19.99
2022-10-29T12:01:29.264Z,20.11
2022-10-29T12:06:55.006Z,20.30
2022-10-29T12:09:47.245Z,20.44
2022-10-29T12:12:29.734Z,20.47
2022-10-29T12:15:08.185Z,20.48
2022-10-29T12:17:42.977Z,20.48
2022-10-29T12:20:23.592Z,20.45
2022-10-29T12:23:05.038Z,20.40
2022-10-29T12:26:00.554Z,20.36
2022-10-29T12:28:42.794Z,20.28
2022-10-29T12:31:24.278Z,20.19
2022-10-29T12:34:07.962Z,20.03
2022-10-29T12:36:46.570Z,20.07
2022-10-29T12:39:25.560Z,20.03
2022-10-29T12:41:57.929Z,19.91
2022-10-29T12:44:39.986Z,20.01
2022-10-29T12:47:19.317Z,20.13
2022-10-29T12:50:03.933Z,20.30
2022-10-29T12:52:43.663Z,20.52
2022-10-29T12:55:17.370Z,20.63
2022-10-29T12:57:51.167Z,20.71
2022-10-29T13:00:47.665Z,20.72
2022-10-29T13:03:51.277Z,20.69
2022-10-29T13:06:45.309Z,20.64
2022-10-29T13:09:18.271Z,20.56
2022-10-29T13:11:51.078Z,20.46
2022-10-29T13:14:33.484Z,20.36
2022-10-29T13:17:03.063Z,20.35
2022-10-29T13:19:44.381Z,20.33
2022-10-29T13:22:50.894Z,20.33
2022-10-29T13:25:44.016Z,20.29
2022-10-29T13:28:51.404Z,20.23
2022-10-29T13:31:46.760Z,20.19
2022-10-29T13:34:47.699Z,20.16
2022-10-29T13:38:03.404Z,20.13
2022-10-29T13:41:04.973Z,20.17
2022-10-29T13:43:44.838Z,20.18
2022-10-29T13:46:30.501Z,20.18
2022-10-29T13:49:03.983Z,20.17
2022-10-29T13:54:39.524Z,20.14
2022-10-29T13:57:17.434Z,20.07
2022-10-29T13:59:51.510Z,20.15
2022-10-29T14:02:48.277Z,20.19
2022-10-29T14:05:26.433Z,20.24
2022-10-29T14:07:58.300Z,20.28
2022-10-29T14:13:01.858Z,20.72
2022-10-29T14:15:29.606Z,20.91
2022-10-29T14:17:58.697Z,20.91
2022-10-29T14:20:29.335Z,20.88
2022-10-29T14:22:58.592Z,20.77
2022-10-29T14:25:33.150Z,20.76
2022-10-29T14:28:19.428Z,20.68
2022-10-29T14:31:03.711Z,20.61
2022-10-29T14:33:33.184Z,20.57
2022-10-29T14:36:15.077Z,20.57
2022-10-29T14:38:46.225Z,20.56
2022-10-29T14:41:16.471Z,20.58
2022-10-29T14:43:45.783Z,20.62
2022-10-29T14:46:26.415Z,20.67
2022-10-29T14:49:04.376Z,20.69
2022-10-29T14:51:39.355Z,20.56
2022-10-29T14:54:20.646Z,20.67
2022-10-29T14:56:55.307Z,20.59
2022-10-29T14:59:29.072Z,20.56
2022-10-29T15:02:05.514Z,20.49
2022-10-29T15:04:50.672Z,20.36
2022-10-29T15:07:31.992Z,20.30
2022-10-29T15:10:27.106Z,20.22
2022-10-29T15:12:57.535Z,20.17
2022-10-29T15:15:30.966Z,20.11
2022-10-29T15:18:07.305Z,20.03
2022-10-29T15:20:46.367Z,19.90
2022-10-29T15:23:21.049Z,19.79
2022-10-29T15:25:52.136Z,19.71
2022-10-29T15:28:25.107Z,19.40
2022-10-29T15:30:54.191Z,19.58
2022-10-29T15:33:25.941Z,19.52
2022-10-29T15:36:00.768Z,19.43
2022-10-29T15:39:05.948Z,19.34
2022-10-29T15:41:39.950Z,19.28
2022-10-29T15:44:22.367Z,19.24
2022-10-29T15:46:59.840Z,19.16
2022-10-29T15:49:31.392Z,19.10
2022-10-29T15:52:02.337Z,19.11
2022-10-29T15:54:30.474Z,19.09
2022-10-29T15:56:58.147Z,19.05
2022-10-29T15:59:27.092Z,18.99
2022-10-29T16:01:55.005Z,19.01
2022-10-29T16:04:25.318Z,18.97
2022-10-29T16:07:14.566Z,18.92
2022-10-29T16:09:48.618Z,18.86
2022-10-29T16:12:16.393Z,18.76
2022-10-29T16:14:46.595Z,18.74
2022-10-29T16:17:18.850Z,18.74
2022-10-29T16:19:46.538Z,18.53
2022-10-29T16:22:21.247Z,18.70
2022-10-29T16:24:49.132Z,18.67
2022-10-29T16:27:19.789Z,18.63
2022-10-29T16:29:49.508Z,18.63
2022-10-29T16:32:19.195Z,18.56
2022-10-29T16:34:46.997Z,18.51
2022-10-29T16:37:18.533Z,18.45
2022-10-29T16:39:46.470Z,18.35
2022-10-29T16:42:29.229Z,18.36
2022-10-29T16:44:57.636Z,18.34
2022-10-29T16:47:25.425Z,18.32
2022-10-29T16:49:53.262Z,18.21
2022-10-29T16:52:25.267Z,18.26
2022-10-29T16:54:55.382Z,18.23
2022-10-29T16:57:29.487Z,18.20
2022-10-29T16:59:57.610Z,18.13
2022-10-29T17:02:25.448Z,17.98
2022-10-29T17:05:07.077Z,17.97
2022-10-29T17:07:36.119Z,17.94
2022-10-29T17:10:07.709Z,17.90
2022-10-29T17:12:36.449Z,17.90
2022-10-29T17:15:04.587Z,17.94
2022-10-29T17:17:46.344Z,17.96
2022-10-29T17:20:14.393Z,17.97
2022-10-29T17:22:43.881Z,17.99
2022-10-29T17:25:12.077Z,17.97
2022-10-29T17:27:40.376Z,17.93
2022-10-29T17:30:10.615Z,17.92
2022-10-29T17:32:38.440Z,17.87
2022-10-29T17:35:08.651Z,17.82
2022-10-29T17:37:36.485Z,17.78
2022-10-29T17:40:08.170Z,17.78
2022-10-29T17:42:41.368Z,17.70
2022-10-29T17:45:10.637Z,17.67
2022-10-29T17:47:41.231Z,17.60
2022-10-29T17:50:09.711Z,17.56
2022-10-29T17:52:40.537Z,17.55
2022-10-29T17:55:12.565Z,17.52
2022-10-29T17:57:40.465Z,17.46
2022-10-29T18:00:09.816Z,17.42
2022-10-29T18:02:37.659Z,17.37
2022-10-29T18:05:08.054Z,17.34
2022-10-29T18:07:35.808Z,17.36
2022-10-29T18:10:03.673Z,17.34
2022-10-29T18:12:32.778Z,17.32
2022-10-29T18:15:00.485Z,17.36
2022-10-29T18:17:29.131Z,17.40
2022-10-29T18:19:56.985Z,17.43
2022-10-29T18:22:24.891Z,17.41
2022-10-29T18:24:52.708Z,17.43
2022-10-29T18:27:21.247Z,17.42
2022-10-29T18:29:51.309Z,17.39
2022-10-29T18:32:19.639Z,17.38
2022-10-29T18:34:54.775Z,17.36
2022-10-29T18:37:31.662Z,17.35
2022-10-29T18:39:59.907Z,17.33
2022-10-29T18:42:29.865Z,17.29
2022-10-29T18:44:58.943Z,17.29
2022-10-29T18:47:27.542Z,17.30
2022-10-29T18:49:55.313Z,17.24
2022-10-29T18:52:29.641Z,17.22
2022-10-29T18:54:57.548Z,17.19
2022-10-29T18:57:29.820Z,17.17
2022-10-29T18:59:59.230Z,17.17
2022-10-29T19:02:27.400Z,17.21
2022-10-29T19:04:55.288Z,17.21
2022-10-29T19:07:23.073Z,17.18
2022-10-29T19:09:53.050Z,17.16
2022-10-29T19:12:23.013Z,17.17
2022-10-29T19:14:50.891Z,17.19
2022-10-29T19:17:20.101Z,17.21
2022-10-29T19:20:13.210Z,17.22
2022-10-29T19:22:41.075Z,17.26
2022-10-29T19:25:09.525Z,17.26
2022-10-29T19:27:40.357Z,17.23
2022-10-29T19:30:09.613Z,17.20
2022-10-29T19:32:41.905Z,17.16
2022-10-29T19:35:15.165Z,17.12
2022-10-29T19:37:46.732Z,17.12
2022-10-29T19:40:14.610Z,17.13
2022-10-29T19:42:54.621Z,17.12
2022-10-29T19:45:24.944Z,17.08
2022-10-29T19:47:54.513Z,17.07
2022-10-29T19:50:25.306Z,17.04
2022-10-29T19:52:53.686Z,17.01
2022-10-29T19:55:24.559Z,16.98
2022-10-29T19:57:55.122Z,16.98
2022-10-29T20:00:23.647Z,16.96
2022-10-29T20:02:54.298Z,16.96
2022-10-29T20:05:28.302Z,16.97
2022-10-29T20:07:57.151Z,16.93
2022-10-29T20:10:27.011Z,16.93
2022-10-29T20:12:55.884Z,16.90
2022-10-29T20:15:23.727Z,16.86
2022-10-29T20:17:51.976Z,16.87
2022-10-29T20:20:21.528Z,16.87
2022-10-29T20:22:50.195Z,16.85
2022-10-29T20:25:23.879Z,16.82
2022-10-29T20:27:52.405Z,16.78
2022-10-29T20:30:20.269Z,16.76
2022-10-29T20:32:49.199Z,16.74
2022-10-29T20:35:24.897Z,16.74
2022-10-29T20:37:54.970Z,16.74
2022-10-29T20:40:32.089Z,16.60
2022-10-29T20:42:59.994Z,16.69
2022-10-29T20:45:27.878Z,16.71
2022-10-29T20:47:58.314Z,16.69
2022-10-29T20:50:33.391Z,16.67
2022-10-29T20:55:39.954Z,16.59
2022-10-29T20:58:07.778Z,16.58
2022-10-29T21:00:35.519Z,16.58
2022-10-29T21:03:03.382Z,16.57
2022-10-29T21:05:38.623Z,16.58
2022-10-29T21:08:06.698Z,16.61
2022-10-29T21:10:37.391Z,16.61
2022-10-29T21:13:11.399Z,16.61
2022-10-29T21:15:39.319Z,16.59
2022-10-29T21:18:07.074Z,16.58
2022-10-29T21:20:36.170Z,16.58
2022-10-29T21:23:07.075Z,16.59
2022-10-29T21:25:39.835Z,16.63
2022-10-29T21:28:07.823Z,16.63
2022-10-29T21:30:36.678Z,16.65
2022-10-29T21:33:04.542Z,16.69
2022-10-29T21:35:36.469Z,16.70
2022-10-29T21:38:07.802Z,16.63
2022-10-29T21:40:36.006Z,16.69
2022-10-29T21:43:04.026Z,16.71
2022-10-29T21:45:31.839Z,16.71
2022-10-29T21:47:59.701Z,16.71
2022-10-29T21:50:27.504Z,16.72
2022-10-29T21:52:58.661Z,16.71
2022-10-29T21:55:29.139Z,16.65
2022-10-29T21:57:57.350Z,16.64
2022-10-29T22:00:25.947Z,16.64
2022-10-29T22:02:57.035Z,16.66
2022-10-29T22:05:28.504Z,16.67
2022-10-29T22:07:58.458Z,16.68
2022-10-29T22:10:26.716Z,16.69
2022-10-29T22:12:57.128Z,16.69
2022-10-29T22:15:28.050Z,16.63
2022-10-29T22:17:55.942Z,16.65
2022-10-29T22:20:26.960Z,16.66
2022-10-29T22:25:41.033Z,16.65
2022-10-29T22:28:09.361Z,16.67
2022-10-29T22:30:37.797Z,16.72
2022-10-29T22:33:05.498Z,16.76
2022-10-29T22:35:34.666Z,16.80
2022-10-29T22:38:02.455Z,16.81
2022-10-29T22:40:30.328Z,16.78
2022-10-29T22:42:59.845Z,16.77
2022-10-29T22:45:27.849Z,16.74
2022-10-29T22:47:55.608Z,16.78
2022-10-29T22:50:23.678Z,16.83
2022-10-29T22:52:51.667Z,16.90
2022-10-29T22:55:22.220Z,16.93
2022-10-29T22:57:50.147Z,16.97
2022-10-29T23:00:19.594Z,17.00
2022-10-29T23:02:47.674Z,17.01
2022-10-29T23:05:15.924Z,17.03
2022-10-29T23:07:43.767Z,17.04
2022-10-29T23:10:11.758Z,17.03
2022-10-29T23:12:39.869Z,17.02
2022-10-29T23:15:08.715Z,17.03
2022-10-29T23:17:40.578Z,16.99
2022-10-29T23:20:08.821Z,17.00
2022-10-29T23:22:36.906Z,17.01
2022-10-29T23:25:05.089Z,17.06
2022-10-29T23:27:33.866Z,17.07
2022-10-29T23:30:01.653Z,17.06
2022-10-29T23:32:36.743Z,17.07
2022-10-29T23:35:06.518Z,17.03
2022-10-29T23:37:36.414Z,17.01
2022-10-29T23:40:04.611Z,17.02
2022-10-29T23:42:32.481Z,17.02
2022-10-29T23:45:07.733Z,17.01
2022-10-29T23:47:38.104Z,16.73
2022-10-29T23:50:08.121Z,17.05
2022-10-29T23:52:35.887Z,17.08
2022-10-29T23:55:05.819Z,17.10
2022-10-29T23:57:33.739Z,17.12
